createdAt,value
2017-11-08T00:00:34.231Z,15.80
2017-11-08T00:03:02.030Z,16.60
2017-11-08T00:05:30.683Z,16.42
2017-11-08T00:08:01.249Z,15.52
2017-11-08T00:10:29.898Z,14.82
2017-11-08T00:12:57.766Z,15.55
2017-11-08T00:15:25.562Z,15.35
2017-11-08T00:17:54.935Z,15.75
2017-11-08T00:20:22.802Z,16.75
2017-11-08T00:22:50.669Z,15.38
2017-11-08T00:25:18.537Z,15.48
2017-11-08T00:27:46.405Z,15.68
2017-11-08T00:30:14.271Z,15.02
2017-11-08T00:32:42.138Z,14.35
2017-11-08T00:35:10.005Z,15.60
2017-11-08T00:37:37.980Z,16.67
2017-11-08T00:40:05.844Z,14.30
2017-11-08T00:42:33.710Z,15.57
2017-11-08T00:45:01.508Z,15.80
2017-11-08T00:47:32.006Z,14.63
2017-11-08T00:49:59.873Z,16.17
2017-11-08T00:52:27.671Z,16.48
2017-11-08T00:54:56.323Z,17.02
2017-11-08T00:57:29.824Z,16.25
2017-11-08T01:00:00.383Z,15.95
2017-11-08T01:02:29.039Z,14.90
2017-11-08T01:04:56.907Z,16.35
2017-11-08T01:07:24.773Z,14.73
2017-11-08T01:09:52.641Z,16.40
2017-11-08T01:12:20.508Z,15.07
2017-11-08T01:14:48.377Z,15.55
2017-11-08T01:17:16.243Z,15.65
2017-11-08T01:19:44.110Z,14.05
2017-11-08T01:22:11.980Z,16.02
2017-11-08T01:24:39.845Z,15.07
2017-11-08T01:27:07.712Z,15.20
2017-11-08T01:29:35.579Z,15.35
2017-11-08T01:32:03.448Z,14.98
2017-11-08T01:34:31.315Z,14.50
2017-11-08T01:37:04.916Z,16.85
2017-11-08T01:39:32.790Z,16.98
2017-11-08T01:42:16.324Z,17.08
2017-11-08T01:44:49.209Z,16.12
2017-11-08T01:47:17.075Z,16.40
2017-11-08T01:49:47.605Z,15.75
2017-11-08T01:52:17.315Z,15.60
2017-11-08T01:54:45.183Z,15.52
2017-11-08T01:57:13.047Z,15.07
2017-11-08T01:59:40.919Z,16.05
2017-11-08T02:02:08.782Z,15.65
2017-11-08T02:04:36.650Z,16.85
2017-11-08T02:07:04.515Z,17.33
2017-11-08T02:09:32.383Z,16.55
2017-11-08T02:12:00.179Z,15.70
2017-11-08T02:14:28.833Z,12.70
2017-11-08T02:16:56.701Z,15.52
2017-11-08T02:19:24.568Z,15.63
2017-11-08T02:21:52.436Z,15.63
2017-11-08T02:24:20.302Z,17.25
2017-11-08T02:27:03.124Z,16.30
2017-11-08T02:29:30.991Z,15.05
2017-11-08T02:31:58.958Z,16.52
2017-11-08T02:34:26.825Z,16.98
2017-11-08T02:36:54.691Z,16.05
2017-11-08T02:39:22.562Z,16.50
2017-11-08T02:41:50.427Z,15.20
2017-11-08T02:44:18.299Z,17.35
2017-11-08T02:46:46.981Z,16.35
2017-11-08T02:49:14.851Z,18.00
2017-11-08T02:51:43.442Z,16.70
2017-11-08T02:54:11.301Z,16.30
2017-11-08T02:56:39.167Z,16.23
2017-11-08T02:59:07.035Z,17.33
2017-11-08T03:01:34.903Z,16.23
2017-11-08T03:04:02.769Z,16.83
2017-11-08T03:06:30.635Z,18.20
2017-11-08T03:08:58.503Z,17.20
2017-11-08T03:11:26.371Z,16.48
2017-11-08T03:13:54.241Z,17.35
2017-11-08T03:16:22.104Z,16.45
2017-11-08T03:18:49.974Z,15.40
2017-11-08T03:21:17.841Z,17.45
2017-11-08T03:23:45.707Z,16.35
2017-11-08T03:26:13.575Z,16.23
2017-11-08T03:28:41.446Z,15.70
2017-11-08T03:31:09.310Z,19.02
2017-11-08T03:33:37.177Z,15.93
2017-11-08T03:36:05.146Z,18.10
2017-11-08T03:38:33.019Z,16.25
2017-11-08T03:41:00.881Z,17.33
2017-11-08T03:43:28.748Z,16.58
2017-11-08T03:45:56.616Z,17.40
2017-11-08T03:48:24.483Z,17.12
2017-11-08T03:50:52.350Z,17.30
2017-11-08T03:53:20.215Z,17.77
2017-11-08T03:55:48.084Z,17.92
2017-11-08T03:58:15.952Z,15.82
2017-11-08T04:00:43.818Z,17.30
2017-11-08T04:03:11.686Z,16.70
2017-11-08T04:05:39.554Z,17.05
2017-11-08T04:08:07.422Z,14.90
2017-11-08T04:10:35.288Z,16.70
2017-11-08T04:13:03.157Z,14.35
2017-11-08T04:15:31.023Z,15.82
2017-11-08T04:17:58.890Z,14.15
2017-11-08T04:20:26.758Z,16.27
2017-11-08T04:22:54.625Z,16.27
2017-11-08T04:25:22.492Z,18.20
2017-11-08T04:27:50.359Z,17.10
2017-11-08T04:30:18.226Z,16.60
2017-11-08T04:32:45.992Z,16.48
2017-11-08T04:35:13.859Z,14.90
2017-11-08T04:37:41.727Z,14.20
2017-11-08T04:40:09.593Z,15.50
2017-11-08T04:42:37.460Z,14.40
2017-11-08T04:45:05.333Z,15.57
2017-11-08T04:47:33.195Z,15.65
2017-11-08T04:50:01.062Z,17.00
2017-11-08T04:52:28.930Z,16.02
2017-11-08T04:54:56.797Z,15.32
2017-11-08T04:57:24.670Z,16.50
2017-11-08T04:59:52.535Z,16.05
2017-11-08T05:02:20.403Z,17.27
2017-11-08T05:04:48.275Z,17.20
2017-11-08T05:07:16.140Z,16.87
2017-11-08T05:09:44.005Z,17.58
2017-11-08T05:12:11.871Z,17.12
2017-11-08T05:14:39.739Z,16.33
2017-11-08T05:17:07.607Z,17.37
2017-11-08T05:19:35.478Z,16.95
2017-11-08T05:22:03.338Z,18.02
2017-11-08T05:24:31.205Z,19.40
2017-11-08T05:26:59.072Z,18.95
2017-11-08T05:29:26.873Z,18.05
2017-11-08T05:31:55.524Z,18.42
2017-11-08T05:34:23.390Z,17.48
2017-11-08T05:36:51.258Z,15.27
2017-11-08T05:39:19.127Z,14.45
2017-11-08T05:41:46.993Z,14.52
2017-11-08T05:44:14.727Z,16.95
2017-11-08T05:46:42.524Z,17.55
2017-11-08T05:49:10.390Z,16.35
2017-11-08T05:51:38.156Z,16.67
2017-11-08T05:54:06.025Z,17.25
2017-11-08T05:56:33.890Z,17.40
2017-11-08T05:59:01.757Z,19.60
2017-11-08T06:01:29.624Z,20.70
2017-11-08T06:03:57.492Z,19.73
2017-11-08T06:06:25.359Z,19.20
2017-11-08T06:08:53.226Z,19.45
2017-11-08T06:11:21.095Z,18.55
2017-11-08T06:13:48.964Z,20.95
2017-11-08T06:16:16.828Z,18.87
2017-11-08T06:18:44.696Z,18.87
2017-11-08T06:21:12.563Z,18.55
2017-11-08T06:23:40.431Z,16.42
2017-11-08T06:26:08.195Z,17.77
2017-11-08T06:28:36.062Z,17.35
2017-11-08T06:31:03.931Z,17.27
2017-11-08T06:33:31.797Z,18.80
2017-11-08T06:35:59.667Z,18.15
2017-11-08T06:38:27.532Z,20.05
2017-11-08T06:40:55.399Z,21.08
2017-11-08T06:43:23.266Z,20.25
2017-11-08T06:45:51.133Z,19.12
2017-11-08T06:48:19.616Z,20.20
2017-11-08T06:50:48.404Z,20.98
2017-11-08T06:53:16.989Z,22.10
2017-11-08T06:55:44.856Z,21.65
2017-11-08T06:58:12.728Z,21.55
2017-11-08T07:00:40.591Z,22.75
2017-11-08T07:03:11.428Z,22.55
2017-11-08T07:05:39.295Z,23.62
2017-11-08T07:08:07.161Z,22.62
2017-11-08T07:10:35.030Z,22.62
2017-11-08T07:13:02.897Z,21.77
2017-11-08T07:15:30.764Z,22.33
2017-11-08T07:17:58.631Z,21.67
2017-11-08T07:20:26.498Z,22.60
2017-11-08T07:22:54.366Z,22.30
2017-11-08T07:25:22.233Z,21.12
2017-11-08T07:27:50.103Z,21.20
2017-11-08T07:30:17.967Z,19.62
2017-11-08T07:32:45.835Z,18.90
2017-11-08T07:35:13.703Z,20.70
2017-11-08T07:37:41.570Z,21.37
2017-11-08T07:40:09.437Z,21.25
2017-11-08T07:42:37.304Z,21.83
2017-11-08T07:45:05.172Z,18.58
2017-11-08T07:47:33.039Z,19.73
2017-11-08T07:50:00.906Z,18.73
2017-11-08T07:52:28.773Z,20.25
2017-11-08T07:55:02.684Z,21.40
2017-11-08T07:57:30.550Z,22.37
2017-11-08T07:59:58.520Z,21.60
2017-11-08T08:02:26.387Z,20.37
2017-11-08T08:04:54.254Z,21.00
2017-11-08T08:07:25.808Z,21.10
2017-11-08T08:09:53.676Z,21.58
2017-11-08T08:12:21.542Z,21.00
2017-11-08T08:14:49.417Z,20.90
2017-11-08T08:17:17.283Z,22.17
2017-11-08T08:19:45.145Z,21.35
2017-11-08T08:22:13.013Z,23.25
2017-11-08T08:24:40.884Z,22.15
2017-11-08T08:27:17.353Z,22.33
2017-11-08T08:29:45.219Z,20.95
2017-11-08T08:32:13.087Z,21.42
2017-11-08T08:34:40.952Z,21.17
2017-11-08T08:37:08.819Z,21.35
2017-11-08T08:39:36.684Z,22.48
2017-11-08T08:42:04.553Z,23.45
2017-11-08T08:44:32.420Z,23.92
2017-11-08T08:47:00.287Z,24.60
2017-11-08T08:49:28.154Z,22.65
2017-11-08T08:51:56.022Z,22.62
2017-11-08T08:54:23.889Z,25.92
2017-11-08T08:56:51.756Z,23.83
2017-11-08T08:59:19.623Z,24.27
2017-11-08T09:01:47.491Z,24.08
2017-11-08T09:04:15.358Z,25.25
2017-11-08T09:06:43.226Z,24.75
2017-11-08T09:09:11.093Z,25.62
2017-11-08T09:11:38.960Z,23.70
2017-11-08T09:14:06.828Z,23.15
2017-11-08T09:16:34.695Z,22.42
2017-11-08T09:19:02.558Z,23.17
2017-11-08T09:21:32.375Z,23.77
2017-11-08T09:24:00.242Z,24.75
2017-11-08T09:26:28.213Z,22.33
2017-11-08T09:28:56.079Z,24.77
2017-11-08T09:31:29.681Z,24.95
2017-11-08T09:33:57.556Z,25.60
2017-11-08T09:36:28.385Z,26.25
2017-11-08T09:38:56.253Z,25.77
2017-11-08T09:41:27.090Z,24.35
2017-11-08T09:43:54.956Z,33.72
2017-11-08T09:46:25.691Z,38.47
2017-11-08T09:48:53.559Z,37.75
2017-11-08T09:51:21.426Z,33.90
2017-11-08T09:53:49.295Z,32.97
2017-11-08T09:56:18.901Z,32.35
2017-11-08T09:58:46.768Z,31.52
2017-11-08T10:01:16.482Z,28.60
2017-11-08T10:03:44.346Z,25.67
2017-11-08T10:06:12.236Z,24.40
2017-11-08T10:08:40.900Z,25.52
2017-11-08T10:11:23.616Z,24.48
2017-11-08T10:13:51.484Z,25.98
2017-11-08T10:16:19.360Z,23.85
2017-11-08T10:18:47.223Z,25.58
2017-11-08T10:21:15.085Z,25.37
2017-11-08T10:23:44.181Z,25.35
2017-11-08T10:26:12.049Z,26.60
2017-11-08T10:28:39.916Z,25.40
2017-11-08T10:31:07.783Z,24.08
2017-11-08T10:33:35.650Z,25.85
2017-11-08T10:36:03.527Z,27.15
2017-11-08T10:38:31.386Z,31.83
2017-11-08T10:40:59.252Z,30.55
2017-11-08T10:43:27.014Z,27.20
2017-11-08T10:45:55.668Z,29.20
2017-11-08T10:48:28.484Z,31.50
2017-11-08T10:50:57.240Z,27.77
2017-11-08T10:53:25.106Z,26.52
2017-11-08T10:55:52.973Z,23.98
2017-11-08T10:58:20.943Z,26.62
2017-11-08T11:00:50.757Z,27.20
2017-11-08T11:03:18.623Z,25.77
2017-11-08T11:05:46.594Z,25.45
2017-11-08T11:08:14.565Z,25.48
2017-11-08T11:10:42.535Z,25.90
2017-11-08T11:13:15.255Z,26.40
2017-11-08T11:15:43.911Z,24.55
2017-11-08T11:18:11.875Z,26.25
2017-11-08T11:20:40.677Z,26.23
2017-11-08T11:23:08.634Z,26.17
2017-11-08T11:25:38.448Z,26.52
2017-11-08T11:28:06.417Z,24.37
2017-11-08T11:30:34.287Z,26.17
2017-11-08T11:33:02.265Z,26.33
2017-11-08T11:35:30.228Z,26.30
2017-11-08T11:37:58.197Z,27.50
2017-11-08T11:40:26.168Z,27.52
2017-11-08T11:42:54.047Z,27.73
2017-11-08T11:45:22.010Z,26.98
2017-11-08T11:47:49.875Z,26.92
2017-11-08T11:50:17.745Z,28.02
2017-11-08T11:52:45.714Z,27.48
2017-11-08T11:55:13.581Z,25.60
2017-11-08T11:57:41.447Z,29.20
2017-11-08T12:00:12.393Z,26.75
2017-11-08T12:02:40.292Z,27.37
2017-11-08T12:05:09.044Z,27.77
2017-11-08T12:07:38.859Z,28.62
2017-11-08T12:10:09.702Z,28.45
2017-11-08T12:12:37.667Z,30.85
2017-11-08T12:15:05.637Z,29.37
2017-11-08T12:17:33.607Z,29.48
2017-11-08T12:20:01.577Z,29.15
2017-11-08T12:22:29.548Z,30.02
2017-11-08T12:24:57.519Z,29.02
2017-11-08T12:27:31.052Z,30.20
2017-11-08T12:29:59.640Z,28.90
2017-11-08T12:32:28.288Z,32.13
2017-11-08T12:34:59.245Z,32.38
2017-11-08T12:37:27.944Z,29.58
2017-11-08T12:39:58.137Z,31.62
2017-11-08T12:42:26.927Z,28.33
2017-11-08T12:45:00.427Z,29.90
2017-11-08T12:47:28.295Z,30.73
2017-11-08T12:49:56.162Z,30.65
2017-11-08T12:52:24.131Z,28.65
2017-11-08T12:54:51.999Z,30.02
2017-11-08T12:57:19.968Z,29.73
2017-11-08T12:59:47.939Z,30.65
2017-11-08T13:02:15.912Z,30.05
2017-11-08T13:04:43.776Z,31.60
2017-11-08T13:07:11.747Z,31.98
2017-11-08T13:09:39.613Z,30.25
2017-11-08T13:12:10.453Z,29.90
2017-11-08T13:14:38.321Z,28.58
2017-11-08T13:17:06.291Z,29.55
2017-11-08T13:19:34.261Z,28.12
2017-11-08T13:22:02.230Z,28.20
2017-11-08T13:24:30.213Z,28.42
2017-11-08T13:26:58.169Z,30.00
2017-11-08T13:29:26.140Z,28.80
2017-11-08T13:31:54.007Z,29.90
2017-11-08T13:34:21.922Z,29.90
2017-11-08T13:36:49.846Z,32.17
2017-11-08T13:39:17.714Z,28.33
2017-11-08T13:41:45.689Z,30.37
2017-11-08T13:44:13.652Z,31.40
2017-11-08T13:46:41.623Z,30.75
2017-11-08T13:49:09.490Z,33.28
2017-11-08T13:51:37.357Z,30.42
2017-11-08T13:54:05.328Z,31.50
2017-11-08T13:56:33.307Z,29.70
2017-11-08T13:59:01.165Z,31.60
2017-11-08T14:01:29.034Z,31.20
2017-11-08T14:03:57.003Z,32.03
2017-11-08T14:06:24.973Z,29.15
2017-11-08T14:08:52.840Z,29.85
2017-11-08T14:11:20.707Z,30.65
2017-11-08T14:13:48.576Z,29.87
2017-11-08T14:16:16.443Z,29.23
2017-11-08T14:18:44.310Z,29.23
2017-11-08T14:21:12.178Z,30.40
2017-11-08T14:23:40.046Z,30.25
2017-11-08T14:26:07.913Z,29.25
2017-11-08T14:28:35.789Z,31.37
2017-11-08T14:31:03.652Z,29.12
2017-11-08T14:33:31.516Z,28.58
2017-11-08T14:35:59.383Z,29.73
2017-11-08T14:38:27.252Z,31.05
2017-11-08T14:40:56.961Z,31.33
2017-11-08T14:43:24.830Z,28.65
2017-11-08T14:45:52.699Z,30.40
2017-11-08T14:48:20.576Z,29.83
2017-11-08T14:50:48.432Z,29.48
2017-11-08T14:53:29.008Z,29.77
2017-11-08T14:55:56.867Z,28.95
2017-11-08T14:58:24.733Z,28.73
2017-11-08T15:00:52.599Z,30.75
2017-11-08T15:03:20.471Z,31.20
2017-11-08T15:05:48.341Z,28.90
2017-11-08T15:08:16.204Z,28.60
2017-11-08T15:10:44.071Z,28.52
2017-11-08T15:13:11.938Z,28.80
2017-11-08T15:15:39.805Z,29.42
2017-11-08T15:18:07.671Z,28.87
2017-11-08T15:20:37.382Z,29.55
2017-11-08T15:23:05.250Z,28.87
2017-11-08T15:25:33.120Z,27.77
2017-11-08T15:28:00.985Z,29.67
2017-11-08T15:30:28.858Z,30.83
2017-11-08T15:32:57.542Z,29.75
2017-11-08T15:35:25.406Z,33.00
2017-11-08T15:37:53.274Z,32.55
2017-11-08T15:40:21.140Z,30.23
2017-11-08T15:42:49.008Z,29.87
2017-11-08T15:45:16.876Z,29.08
2017-11-08T15:47:47.441Z,32.10
2017-11-08T15:50:16.092Z,30.25
2017-11-08T15:52:43.960Z,29.37
2017-11-08T15:55:11.826Z,29.80
2017-11-08T15:57:39.695Z,31.75
2017-11-08T16:00:07.562Z,31.00
2017-11-08T16:02:50.277Z,30.35
2017-11-08T16:05:18.246Z,28.73
2017-11-08T16:07:46.134Z,30.90
2017-11-08T16:10:13.982Z,28.38
2017-11-08T16:12:44.715Z,30.30
2017-11-08T16:15:12.582Z,32.28
2017-11-08T16:17:40.450Z,33.53
2017-11-08T16:20:13.849Z,31.50
2017-11-08T16:22:41.715Z,32.70
2017-11-08T16:25:09.582Z,32.65
2017-11-08T16:27:37.448Z,31.30
2017-11-08T16:30:05.321Z,30.80
2017-11-08T16:32:33.184Z,34.10
2017-11-08T16:35:01.051Z,29.40
2017-11-08T16:37:28.918Z,29.60
2017-11-08T16:39:56.785Z,31.37
2017-11-08T16:42:24.653Z,29.12
2017-11-08T16:44:52.520Z,30.30
2017-11-08T16:47:20.388Z,35.03
2017-11-08T16:49:48.255Z,33.20
2017-11-08T16:52:16.122Z,34.17
2017-11-08T16:54:43.989Z,31.55
2017-11-08T16:57:11.856Z,35.08
2017-11-08T16:59:39.730Z,33.72
2017-11-08T17:02:07.591Z,34.47
2017-11-08T17:04:35.458Z,30.42
2017-11-08T17:07:03.357Z,28.27
2017-11-08T17:09:32.526Z,32.03
2017-11-08T17:12:01.316Z,31.67
2017-11-08T17:14:29.180Z,30.52
2017-11-08T17:16:57.049Z,29.48
2017-11-08T17:19:24.916Z,32.22
2017-11-08T17:21:52.782Z,32.42
2017-11-08T17:24:20.653Z,33.15
2017-11-08T17:26:48.517Z,31.87
2017-11-08T17:29:16.384Z,35.13
2017-11-08T17:31:44.255Z,32.53
2017-11-08T17:34:12.122Z,32.30
2017-11-08T17:36:39.999Z,35.45
2017-11-08T17:39:07.853Z,33.28
2017-11-08T17:41:35.729Z,31.73
2017-11-08T17:44:03.588Z,35.05
2017-11-08T17:46:31.557Z,31.08
2017-11-08T17:48:59.426Z,31.87
2017-11-08T17:51:27.292Z,31.33
2017-11-08T17:53:55.160Z,29.12
2017-11-08T17:56:23.026Z,30.05
2017-11-08T17:58:50.894Z,28.12
2017-11-08T18:01:22.827Z,29.58
2017-11-08T18:03:54.525Z,27.60
2017-11-08T18:06:27.887Z,24.80
2017-11-08T18:09:01.204Z,26.40
2017-11-08T18:11:33.060Z,23.52
2017-11-08T18:14:01.246Z,25.37
2017-11-08T18:16:29.112Z,22.80
2017-11-08T18:18:56.978Z,23.77
2017-11-08T18:21:24.843Z,26.65
2017-11-08T18:23:52.714Z,22.87
2017-11-08T18:26:20.580Z,23.55
2017-11-08T18:28:48.555Z,24.55
2017-11-08T18:31:17.234Z,23.20
2017-11-08T18:33:45.106Z,27.10
2017-11-08T18:36:12.968Z,22.75
2017-11-08T18:38:40.835Z,23.33
2017-11-08T18:41:08.702Z,21.85
2017-11-08T18:43:36.569Z,23.00
2017-11-08T18:46:04.436Z,24.35
2017-11-08T18:48:32.304Z,23.48
2017-11-08T18:51:00.172Z,25.23
2017-11-08T18:53:28.040Z,25.85
2017-11-08T18:55:55.905Z,21.35
2017-11-08T18:58:23.773Z,24.00
2017-11-08T19:00:51.639Z,24.20
2017-11-08T19:03:19.508Z,26.25
2017-11-08T19:05:47.383Z,24.60
2017-11-08T19:08:15.241Z,21.23
2017-11-08T19:10:43.109Z,20.75
2017-11-08T19:13:10.976Z,20.37
2017-11-08T19:15:38.843Z,21.67
2017-11-08T19:18:06.711Z,20.15
2017-11-08T19:20:34.579Z,22.42
2017-11-08T19:23:02.445Z,21.55
2017-11-08T19:25:30.351Z,23.08
2017-11-08T19:27:59.000Z,20.12
2017-11-08T19:30:26.794Z,20.60
2017-11-08T19:32:55.453Z,20.45
2017-11-08T19:35:23.323Z,22.33
2017-11-08T19:37:51.185Z,18.60
2017-11-08T19:40:19.052Z,19.60
2017-11-08T19:42:46.920Z,18.27
2017-11-08T19:45:14.788Z,23.17
2017-11-08T19:47:42.655Z,20.65
2017-11-08T19:50:10.524Z,21.20
2017-11-08T19:52:38.392Z,20.85
2017-11-08T19:55:06.258Z,22.75
2017-11-08T19:57:34.124Z,22.20
2017-11-08T20:00:01.991Z,21.62
2017-11-08T20:02:29.858Z,21.37
2017-11-08T20:04:57.726Z,24.30
2017-11-08T20:07:25.593Z,21.62
2017-11-08T20:09:53.459Z,22.45
2017-11-08T20:12:21.332Z,20.83
2017-11-08T20:14:49.195Z,22.20
2017-11-08T20:17:17.062Z,21.37
2017-11-08T20:19:44.929Z,20.60
2017-11-08T20:22:12.737Z,19.58
2017-11-08T20:24:41.380Z,19.85
2017-11-08T20:27:09.247Z,22.42
2017-11-08T20:29:37.116Z,19.90
2017-11-08T20:32:04.982Z,19.73
2017-11-08T20:34:32.850Z,20.52
2017-11-08T20:37:00.717Z,19.00
2017-11-08T20:39:28.585Z,20.37
2017-11-08T20:41:56.452Z,19.80
2017-11-08T20:44:24.252Z,21.08
2017-11-08T20:46:52.902Z,18.58
2017-11-08T20:49:20.773Z,17.77
2017-11-08T20:51:48.638Z,18.35
2017-11-08T20:54:16.505Z,18.35
2017-11-08T20:56:44.373Z,18.85
2017-11-08T20:59:12.240Z,17.62
2017-11-08T21:01:40.108Z,20.95
2017-11-08T21:04:07.974Z,18.55
2017-11-08T21:06:35.842Z,17.15
2017-11-08T21:09:03.709Z,19.23
2017-11-08T21:11:31.506Z,19.23
2017-11-08T21:14:00.161Z,21.05
2017-11-08T21:16:28.029Z,18.50
2017-11-08T21:18:55.895Z,20.85
2017-11-08T21:21:23.762Z,18.70
2017-11-08T21:23:51.630Z,18.55
2017-11-08T21:26:19.497Z,18.90
2017-11-08T21:28:47.363Z,19.33
2017-11-08T21:31:15.230Z,18.60
2017-11-08T21:33:43.098Z,17.05
2017-11-08T21:36:10.972Z,17.30
2017-11-08T21:38:38.839Z,16.55
2017-11-08T21:41:06.705Z,17.77
2017-11-08T21:43:34.573Z,18.50
2017-11-08T21:46:02.443Z,19.90
2017-11-08T21:48:30.307Z,18.65
2017-11-08T21:50:58.173Z,17.98
2017-11-08T21:53:26.039Z,18.30
2017-11-08T21:55:53.905Z,19.73
2017-11-08T21:58:21.772Z,17.52
2017-11-08T22:00:49.659Z,19.40
2017-11-08T22:03:17.506Z,18.08
2017-11-08T22:05:45.374Z,18.23
2017-11-08T22:08:13.241Z,19.00
2017-11-08T22:10:41.109Z,19.90
2017-11-08T22:13:08.974Z,18.95
2017-11-08T22:15:36.843Z,20.05
2017-11-08T22:18:04.711Z,19.92
2017-11-08T22:20:33.500Z,20.48
2017-11-08T22:23:01.367Z,19.83
2017-11-08T22:25:29.234Z,23.12
2017-11-08T22:27:57.102Z,22.02
2017-11-08T22:30:24.968Z,19.40
2017-11-08T22:32:52.836Z,19.95
2017-11-08T22:35:20.705Z,19.37
2017-11-08T22:37:48.586Z,19.30
2017-11-08T22:40:16.438Z,19.80
2017-11-08T22:42:44.306Z,17.95
2017-11-08T22:45:12.172Z,18.90
2017-11-08T22:47:40.040Z,19.85
2017-11-08T22:50:07.908Z,19.00
2017-11-08T22:52:35.672Z,17.87
2017-11-08T22:55:03.544Z,18.62
2017-11-08T22:57:31.408Z,20.02
2017-11-08T22:59:59.994Z,17.90
2017-11-08T23:02:27.858Z,18.33
2017-11-08T23:04:55.726Z,19.33
2017-11-08T23:07:23.592Z,17.12
2017-11-08T23:09:51.460Z,15.70
2017-11-08T23:12:19.330Z,19.65
2017-11-08T23:14:47.194Z,18.48
2017-11-08T23:17:15.061Z,18.90
2017-11-08T23:19:43.852Z,19.40
2017-11-08T23:22:11.723Z,18.42
2017-11-08T23:24:39.688Z,17.62
2017-11-08T23:27:07.492Z,17.15
2017-11-08T23:29:36.141Z,18.77
2017-11-08T23:32:04.007Z,17.95
2017-11-08T23:34:31.878Z,18.92
2017-11-08T23:36:59.741Z,19.70
2017-11-08T23:39:27.609Z,20.70
2017-11-08T23:41:55.475Z,20.23
2017-11-08T23:44:23.442Z,18.17
2017-11-08T23:46:51.313Z,19.55
2017-11-08T23:49:19.181Z,17.35
2017-11-08T23:51:47.052Z,19.25
2017-11-08T23:54:14.915Z,19.02
2017-11-08T23:56:42.790Z,20.10
2017-11-08T23:59:29.493Z,19.45
